createdAt,value
2022-09-21T00:00:17.643Z,24.13
2022-09-21T00:00:49.282Z,24.16
2022-09-21T00:01:27.394Z,24.12
2022-09-21T00:01:58.973Z,24.11
2022-09-21T00:02:30.655Z,24.09
2022-09-21T00:03:02.144Z,24.09
2022-09-21T00:03:34.020Z,24.10
2022-09-21T00:04:05.650Z,24.10
2022-09-21T00:04:37.275Z,24.09
2022-09-21T00:05:08.954Z,24.09
2022-09-21T00:05:40.503Z,24.06
2022-09-21T00:06:13.029Z,24.07
2022-09-21T00:06:44.606Z,24.07
2022-09-21T00:07:16.105Z,24.08
2022-09-21T00:07:47.660Z,24.07
2022-09-21T00:08:19.219Z,24.09
2022-09-21T00:08:50.681Z,24.09
2022-09-21T00:09:22.146Z,24.07
2022-09-21T00:09:53.739Z,24.07
2022-09-21T00:10:25.217Z,24.06
2022-09-21T00:10:56.777Z,24.08
2022-09-21T00:11:28.879Z,24.06
2022-09-21T00:12:00.398Z,24.04
2022-09-21T00:12:31.917Z,24.03
2022-09-21T00:13:03.577Z,24.01
2022-09-21T00:13:35.148Z,23.98
2022-09-21T00:14:08.096Z,23.97
2022-09-21T00:14:39.661Z,23.98
2022-09-21T00:15:11.225Z,23.96
2022-09-21T00:15:43.020Z,23.94
2022-09-21T00:16:17.281Z,23.90
2022-09-21T00:16:48.868Z,23.93
2022-09-21T00:17:20.367Z,23.93
2022-09-21T00:17:55.218Z,23.94
2022-09-21T00:18:26.788Z,23.94
2022-09-21T00:18:58.406Z,23.92
2022-09-21T00:19:29.900Z,23.92
2022-09-21T00:20:01.699Z,23.91
2022-09-21T00:20:33.283Z,23.90
2022-09-21T00:21:08.405Z,23.90
2022-09-21T00:21:39.954Z,23.93
2022-09-21T00:22:11.529Z,23.92
2022-09-21T00:22:43.108Z,23.93
2022-09-21T00:23:14.747Z,23.91
2022-09-21T00:23:46.319Z,23.91
2022-09-21T00:24:17.870Z,23.89
2022-09-21T00:24:49.525Z,23.86
2022-09-21T00:25:21.066Z,23.85
2022-09-21T00:25:52.694Z,23.83
2022-09-21T00:26:25.078Z,23.84
2022-09-21T00:26:56.651Z,23.87
2022-09-21T00:27:28.192Z,23.85
2022-09-21T00:27:59.740Z,23.84
2022-09-21T00:28:31.279Z,23.83
2022-09-21T00:29:02.959Z,23.83
2022-09-21T00:29:34.542Z,23.84
2022-09-21T00:30:06.360Z,23.84
2022-09-21T00:30:37.976Z,23.84
2022-09-21T00:31:10.034Z,23.79
2022-09-21T00:31:41.603Z,23.80
2022-09-21T00:32:13.095Z,23.82
2022-09-21T00:32:44.677Z,23.79
2022-09-21T00:33:16.215Z,23.76
2022-09-21T00:33:47.800Z,23.73
2022-09-21T00:34:19.369Z,23.75
2022-09-21T00:34:51.435Z,23.73
2022-09-21T00:35:23.031Z,23.73
2022-09-21T00:35:54.579Z,23.72
2022-09-21T00:36:26.333Z,23.77
2022-09-21T00:36:58.066Z,23.82
2022-09-21T00:37:29.597Z,23.83
2022-09-21T00:38:01.792Z,23.87
2022-09-21T00:38:33.386Z,23.85
2022-09-21T00:39:04.892Z,23.85
2022-09-21T00:39:36.406Z,23.86
2022-09-21T00:40:08.153Z,23.86
2022-09-21T00:40:39.704Z,23.86
2022-09-21T00:41:11.314Z,23.84
2022-09-21T00:41:42.946Z,23.83
2022-09-21T00:42:21.551Z,23.84
2022-09-21T00:42:53.084Z,23.85
2022-09-21T00:43:24.669Z,23.83
2022-09-21T00:44:08.095Z,23.80
2022-09-21T00:44:39.599Z,23.77
2022-09-21T00:45:11.677Z,23.76
2022-09-21T00:45:43.369Z,23.77
2022-09-21T00:46:33.099Z,23.77
2022-09-21T00:47:06.738Z,23.82
2022-09-21T00:47:39.077Z,23.82
2022-09-21T00:48:10.616Z,23.82
2022-09-21T00:48:42.202Z,23.82
2022-09-21T00:49:13.739Z,23.78
2022-09-21T00:49:45.738Z,23.79
2022-09-21T00:50:18.042Z,23.80
2022-09-21T00:50:50.247Z,23.79
2022-09-21T00:51:21.802Z,23.74
2022-09-21T00:51:53.426Z,23.70
2022-09-21T00:52:25.111Z,23.69
2022-09-21T00:52:57.151Z,23.68
2022-09-21T00:53:28.834Z,23.69
2022-09-21T00:54:04.941Z,23.70
2022-09-21T00:54:38.229Z,23.73
2022-09-21T00:55:11.685Z,23.73
2022-09-21T00:55:44.079Z,23.75
2022-09-21T00:56:15.624Z,23.78
2022-09-21T00:56:47.167Z,23.76
2022-09-21T00:57:19.528Z,23.74
2022-09-21T00:57:53.011Z,23.79
2022-09-21T00:58:26.421Z,23.78
2022-09-21T00:58:58.040Z,23.79
2022-09-21T00:59:30.616Z,23.78
2022-09-21T01:00:02.665Z,23.74
2022-09-21T01:00:34.209Z,23.72
2022-09-21T01:01:05.827Z,23.72
2022-09-21T01:01:37.394Z,23.70
2022-09-21T01:02:09.074Z,23.72
2022-09-21T01:02:40.913Z,23.73
2022-09-21T01:03:12.726Z,23.72
2022-09-21T01:03:44.987Z,23.75
2022-09-21T01:04:16.510Z,23.76
2022-09-21T01:04:48.044Z,23.77
2022-09-21T01:05:19.660Z,23.76
2022-09-21T01:05:51.174Z,23.75
2022-09-21T01:06:22.676Z,23.76
2022-09-21T01:06:54.693Z,23.77
2022-09-21T01:07:27.126Z,23.75
2022-09-21T01:07:59.526Z,23.72
2022-09-21T01:08:31.128Z,23.73
2022-09-21T01:09:02.776Z,23.75
2022-09-21T01:09:34.310Z,23.75
2022-09-21T01:10:13.039Z,23.72
2022-09-21T01:10:44.614Z,23.72
2022-09-21T01:11:28.187Z,23.73
2022-09-21T01:12:14.898Z,23.73
2022-09-21T01:12:49.070Z,23.74
2022-09-21T01:13:20.572Z,23.73
2022-09-21T01:14:11.013Z,23.70
2022-09-21T01:15:01.438Z,23.72
2022-09-21T01:15:45.355Z,23.73
2022-09-21T01:16:19.055Z,23.74
2022-09-21T01:17:09.124Z,23.74
2022-09-21T01:17:50.738Z,23.71
2022-09-21T01:18:22.312Z,23.71
2022-09-21T01:18:59.060Z,23.70
2022-09-21T01:19:40.301Z,23.68
2022-09-21T01:20:20.101Z,23.71
2022-09-21T01:20:51.519Z,23.72
2022-09-21T01:21:25.314Z,23.71
2022-09-21T01:22:05.598Z,23.71
2022-09-21T01:22:42.796Z,23.70
2022-09-21T01:23:29.105Z,23.72
2022-09-21T01:24:18.990Z,23.69
2022-09-21T01:25:09.264Z,23.71
2022-09-21T01:25:49.714Z,23.69
2022-09-21T01:26:35.088Z,23.70
2022-09-21T01:27:24.549Z,23.68
2022-09-21T01:28:14.361Z,23.70
2022-09-21T01:29:06.977Z,23.68
2022-09-21T01:29:42.166Z,23.64
2022-09-21T01:30:15.917Z,23.64
2022-09-21T01:30:49.144Z,23.62
2022-09-21T01:31:22.235Z,23.63
2022-09-21T01:32:13.793Z,23.61
2022-09-21T01:32:57.437Z,23.62
2022-09-21T01:33:30.269Z,23.64
2022-09-21T01:34:02.500Z,23.61
2022-09-21T01:34:44.806Z,23.58
2022-09-21T01:35:20.434Z,23.61
2022-09-21T01:35:56.815Z,23.61
2022-09-21T01:36:28.641Z,23.61
2022-09-21T01:37:01.776Z,23.63
2022-09-21T01:37:38.221Z,23.58
2022-09-21T01:38:35.932Z,23.60
2022-09-21T01:39:08.603Z,23.58
2022-09-21T01:39:40.202Z,23.58
2022-09-21T01:40:13.270Z,23.60
2022-09-21T01:40:46.201Z,23.61
2022-09-21T01:41:19.959Z,23.61
2022-09-21T01:41:51.480Z,23.64
2022-09-21T01:42:23.102Z,23.63
2022-09-21T01:42:54.574Z,23.63
2022-09-21T01:43:31.402Z,23.61
2022-09-21T01:44:10.453Z,23.60
2022-09-21T01:44:41.968Z,23.62
2022-09-21T01:45:13.537Z,23.61
2022-09-21T01:45:45.980Z,23.61
2022-09-21T01:46:18.658Z,23.63
2022-09-21T01:46:50.164Z,23.61
2022-09-21T01:47:21.749Z,23.60
2022-09-21T01:47:53.369Z,23.60
2022-09-21T01:48:25.013Z,23.60
2022-09-21T01:48:58.152Z,23.54
2022-09-21T01:49:34.838Z,23.52
2022-09-21T01:50:06.647Z,23.52
2022-09-21T01:50:40.481Z,23.53
2022-09-21T01:51:12.518Z,23.58
2022-09-21T01:51:45.426Z,23.57
2022-09-21T01:52:25.016Z,23.56
2022-09-21T01:53:00.753Z,23.53
2022-09-21T01:53:33.503Z,23.53
2022-09-21T01:54:07.437Z,23.54
2022-09-21T01:54:49.563Z,23.53
2022-09-21T01:55:23.320Z,23.58
2022-09-21T01:56:06.812Z,23.58
2022-09-21T01:56:41.598Z,23.61
2022-09-21T01:57:23.673Z,23.59
2022-09-21T01:57:58.108Z,23.56
2022-09-21T01:58:34.240Z,23.56
2022-09-21T01:59:17.095Z,23.54
2022-09-21T01:59:55.658Z,23.55
2022-09-21T02:00:27.316Z,23.54
2022-09-21T02:00:58.965Z,23.55
2022-09-21T02:01:30.651Z,23.52
2022-09-21T02:02:04.858Z,23.52
2022-09-21T02:02:47.986Z,23.52
2022-09-21T02:03:38.922Z,23.56
2022-09-21T02:04:11.288Z,23.52
2022-09-21T02:04:43.043Z,23.50
2022-09-21T02:05:14.649Z,23.48
2022-09-21T02:05:46.181Z,23.46
2022-09-21T02:06:18.019Z,23.46
2022-09-21T02:06:49.584Z,23.47
2022-09-21T02:07:21.123Z,23.53
2022-09-21T02:07:52.663Z,23.51
2022-09-21T02:08:24.501Z,23.54
2022-09-21T02:08:56.077Z,23.55
2022-09-21T02:09:27.677Z,23.57
2022-09-21T02:09:59.778Z,23.55
2022-09-21T02:10:39.342Z,23.58
2022-09-21T02:11:10.948Z,23.57
2022-09-21T02:11:42.680Z,23.58
2022-09-21T02:12:18.745Z,23.58
2022-09-21T02:12:53.170Z,23.55
2022-09-21T02:13:24.788Z,23.54
2022-09-21T02:13:56.364Z,23.53
2022-09-21T02:14:28.040Z,23.49
2022-09-21T02:14:59.549Z,23.47
2022-09-21T02:15:46.471Z,23.47
2022-09-21T02:16:26.700Z,23.48
2022-09-21T02:17:17.191Z,23.46
2022-09-21T02:17:54.189Z,23.49
2022-09-21T02:18:33.784Z,23.51
2022-09-21T02:19:08.364Z,23.49
2022-09-21T02:19:39.869Z,23.48
2022-09-21T02:20:11.376Z,23.48
2022-09-21T02:20:45.992Z,23.47
2022-09-21T02:21:23.337Z,23.48
2022-09-21T02:22:12.047Z,23.49
2022-09-21T02:22:46.248Z,23.49
2022-09-21T02:23:24.403Z,23.48
2022-09-21T02:23:58.644Z,23.48
2022-09-21T02:24:43.570Z,23.46
2022-09-21T02:25:29.930Z,23.46
2022-09-21T02:26:10.378Z,23.45
2022-09-21T02:26:53.504Z,23.45
2022-09-21T02:27:31.023Z,23.47
2022-09-21T02:28:06.829Z,23.48
2022-09-21T02:28:49.362Z,23.51
2022-09-21T02:29:23.626Z,23.47
2022-09-21T02:30:00.996Z,23.46
2022-09-21T02:30:33.039Z,23.46
2022-09-21T02:31:33.668Z,23.46
2022-09-21T02:32:06.648Z,23.47
2022-09-21T02:32:44.218Z,23.49
2022-09-21T02:33:20.173Z,23.45
2022-09-21T02:33:57.012Z,23.43
2022-09-21T02:34:36.163Z,23.43
2022-09-21T02:35:15.561Z,23.42
2022-09-21T02:35:51.002Z,23.43
2022-09-21T02:36:25.020Z,23.43
2022-09-21T02:36:58.576Z,23.45
2022-09-21T02:37:35.671Z,23.46
2022-09-21T02:38:09.034Z,23.43
2022-09-21T02:38:44.499Z,23.45
2022-09-21T02:39:16.748Z,23.43
2022-09-21T02:39:52.955Z,23.38
2022-09-21T02:40:31.492Z,23.39
2022-09-21T02:41:08.682Z,23.40
2022-09-21T02:41:45.254Z,23.43
2022-09-21T02:42:17.336Z,23.45
2022-09-21T02:42:48.903Z,23.44
2022-09-21T02:43:23.307Z,23.43
2022-09-21T02:44:11.934Z,23.40
2022-09-21T02:44:52.622Z,23.42
2022-09-21T02:45:27.706Z,23.41
2022-09-21T02:46:00.285Z,23.44
2022-09-21T02:46:31.890Z,23.45
2022-09-21T02:47:03.623Z,23.46
2022-09-21T02:47:36.954Z,23.48
2022-09-21T02:48:09.622Z,23.48
2022-09-21T02:48:43.359Z,23.50
2022-09-21T02:49:18.161Z,23.49
2022-09-21T02:49:51.645Z,23.49
2022-09-21T02:50:24.308Z,23.48
2022-09-21T02:50:56.988Z,23.47
2022-09-21T02:51:32.110Z,23.48
2022-09-21T02:52:05.350Z,23.49
2022-09-21T02:52:36.923Z,23.48
2022-09-21T02:53:09.055Z,23.46
2022-09-21T02:53:40.577Z,23.45
2022-09-21T02:54:12.125Z,23.43
2022-09-21T02:54:44.606Z,23.45
2022-09-21T02:55:16.327Z,23.43
2022-09-21T02:55:47.921Z,23.41
2022-09-21T02:56:19.490Z,23.40
2022-09-21T02:56:51.008Z,23.40
2022-09-21T02:57:22.720Z,23.38
2022-09-21T02:57:54.357Z,23.38
2022-09-21T02:58:26.166Z,23.40
2022-09-21T02:58:58.842Z,23.38
2022-09-21T02:59:30.466Z,23.40
2022-09-21T03:00:02.151Z,23.43
2022-09-21T03:00:34.731Z,23.42
2022-09-21T03:01:07.024Z,23.42
2022-09-21T03:01:39.061Z,23.42
2022-09-21T03:02:10.988Z,23.40
2022-09-21T03:02:43.380Z,23.43
2022-09-21T03:03:21.706Z,23.47
2022-09-21T03:03:53.358Z,23.44
2022-09-21T03:04:24.902Z,23.45
2022-09-21T03:04:56.448Z,23.44
2022-09-21T03:05:28.008Z,23.45
2022-09-21T03:05:59.579Z,23.47
2022-09-21T03:06:31.069Z,23.46
2022-09-21T03:07:02.713Z,23.42
2022-09-21T03:07:34.273Z,23.43
2022-09-21T03:08:05.801Z,23.46
2022-09-21T03:08:37.356Z,23.43
2022-09-21T03:09:09.043Z,23.44
2022-09-21T03:09:40.586Z,23.43
2022-09-21T03:10:12.185Z,23.41
2022-09-21T03:10:43.882Z,23.43
2022-09-21T03:11:18.811Z,23.45
2022-09-21T03:11:53.041Z,23.45
2022-09-21T03:12:24.550Z,23.46
2022-09-21T03:12:58.658Z,23.44
2022-09-21T03:13:30.295Z,23.44
2022-09-21T03:14:02.210Z,23.46
2022-09-21T03:14:33.962Z,23.43
2022-09-21T03:15:05.842Z,23.42
2022-09-21T03:15:37.847Z,23.44
2022-09-21T03:16:09.568Z,23.45
2022-09-21T03:16:41.124Z,23.46
2022-09-21T03:17:12.638Z,23.45
2022-09-21T03:17:44.226Z,23.47
2022-09-21T03:18:15.691Z,23.44
2022-09-21T03:18:47.311Z,23.46
2022-09-21T03:19:18.831Z,23.43
2022-09-21T03:19:50.367Z,23.45
2022-09-21T03:20:21.966Z,23.49
2022-09-21T03:20:53.509Z,23.46
2022-09-21T03:21:25.132Z,23.47
2022-09-21T03:21:56.673Z,23.48
2022-09-21T03:22:28.345Z,23.48
2022-09-21T03:23:00.065Z,23.48
2022-09-21T03:23:31.692Z,23.46
2022-09-21T03:24:03.256Z,23.43
2022-09-21T03:24:34.733Z,23.41
2022-09-21T03:25:06.514Z,23.44
2022-09-21T03:25:38.138Z,23.45
2022-09-21T03:26:09.624Z,23.44
2022-09-21T03:26:41.213Z,23.46
2022-09-21T03:27:15.034Z,23.44
2022-09-21T03:27:46.638Z,23.44
2022-09-21T03:28:18.279Z,23.41
2022-09-21T03:28:50.107Z,23.45
2022-09-21T03:29:21.713Z,23.46
2022-09-21T03:29:53.277Z,23.46
2022-09-21T03:30:25.243Z,23.42
2022-09-21T03:30:56.778Z,23.44
2022-09-21T03:31:28.352Z,23.43
2022-09-21T03:31:59.899Z,23.41
2022-09-21T03:32:31.431Z,23.42
2022-09-21T03:33:02.953Z,23.43
2022-09-21T03:33:34.496Z,23.44
2022-09-21T03:34:05.968Z,23.45
2022-09-21T03:34:37.451Z,23.44
2022-09-21T03:35:09.169Z,23.43
2022-09-21T03:35:40.978Z,23.45
2022-09-21T03:36:12.493Z,23.42
2022-09-21T03:36:44.202Z,23.43
2022-09-21T03:37:15.669Z,23.42
2022-09-21T03:37:47.319Z,23.42
2022-09-21T03:38:19.198Z,23.44
2022-09-21T03:38:50.702Z,23.42
2022-09-21T03:39:22.248Z,23.42
2022-09-21T03:39:53.798Z,23.45
2022-09-21T03:40:25.378Z,23.47
2022-09-21T03:40:56.989Z,23.46
2022-09-21T03:41:28.504Z,23.47
2022-09-21T03:42:00.086Z,23.47
2022-09-21T03:42:31.712Z,23.45
2022-09-21T03:43:03.275Z,23.47
2022-09-21T03:43:34.849Z,23.49
2022-09-21T03:44:06.429Z,23.48
2022-09-21T03:44:37.942Z,23.44
2022-09-21T03:45:09.828Z,23.42
2022-09-21T03:45:41.572Z,23.43
2022-09-21T03:46:13.255Z,23.46
2022-09-21T03:46:44.865Z,23.46
2022-09-21T03:47:16.409Z,23.48
2022-09-21T03:47:48.123Z,23.48
2022-09-21T03:48:19.665Z,23.50
2022-09-21T03:48:51.199Z,23.47
2022-09-21T03:49:22.760Z,23.47
2022-09-21T03:49:54.262Z,23.44
2022-09-21T03:50:26.100Z,23.44
2022-09-21T03:50:57.604Z,23.44
2022-09-21T03:51:29.355Z,23.43
2022-09-21T03:52:00.964Z,23.47
2022-09-21T03:52:32.536Z,23.47
2022-09-21T03:53:04.148Z,23.51
2022-09-21T03:53:35.672Z,23.51
2022-09-21T03:54:07.199Z,23.47
2022-09-21T03:54:38.794Z,23.45
2022-09-21T03:55:10.451Z,23.43
2022-09-21T03:55:42.109Z,23.42
2022-09-21T03:56:13.645Z,23.44
2022-09-21T03:56:45.221Z,23.40
2022-09-21T03:57:16.814Z,23.44
2022-09-21T03:57:48.450Z,23.47
2022-09-21T03:58:20.048Z,23.47
2022-09-21T03:58:51.683Z,23.43
2022-09-21T03:59:23.219Z,23.44
2022-09-21T03:59:54.795Z,23.44
2022-09-21T04:00:26.337Z,23.47
2022-09-21T04:01:01.230Z,23.47
2022-09-21T04:01:32.723Z,23.45
2022-09-21T04:02:04.424Z,23.43
2022-09-21T04:02:36.574Z,23.41
2022-09-21T04:03:08.234Z,23.38
2022-09-21T04:03:39.765Z,23.43
2022-09-21T04:04:11.315Z,23.45
2022-09-21T04:04:42.881Z,23.44
2022-09-21T04:05:14.801Z,23.42
2022-09-21T04:05:46.306Z,23.42
2022-09-21T04:06:17.919Z,23.47
2022-09-21T04:06:49.555Z,23.47
2022-09-21T04:07:21.102Z,23.45
2022-09-21T04:07:52.975Z,23.47
2022-09-21T04:08:24.583Z,23.47
2022-09-21T04:08:56.145Z,23.45
2022-09-21T04:09:27.709Z,23.43
2022-09-21T04:09:59.203Z,23.45
2022-09-21T04:10:30.832Z,23.46
2022-09-21T04:11:02.343Z,23.44
2022-09-21T04:11:34.088Z,23.46
2022-09-21T04:12:05.718Z,23.46
2022-09-21T04:12:37.314Z,23.47
2022-09-21T04:13:09.048Z,23.47
2022-09-21T04:13:40.580Z,23.45
2022-09-21T04:14:12.446Z,23.44
2022-09-21T04:14:43.952Z,23.48
2022-09-21T04:15:16.348Z,23.47
2022-09-21T04:15:47.977Z,23.48
2022-09-21T04:16:19.500Z,23.49
2022-09-21T04:16:51.103Z,23.48
2022-09-21T04:17:22.830Z,23.50
2022-09-21T04:17:54.582Z,23.51
2022-09-21T04:18:26.158Z,23.50
2022-09-21T04:18:57.668Z,23.49
2022-09-21T04:19:29.320Z,23.47
2022-09-21T04:20:01.022Z,23.45
2022-09-21T04:20:32.607Z,23.45
2022-09-21T04:21:04.758Z,23.44
2022-09-21T04:21:36.399Z,23.45
2022-09-21T04:22:08.305Z,23.47
2022-09-21T04:22:43.301Z,23.44
2022-09-21T04:23:15.369Z,23.40
2022-09-21T04:23:46.961Z,23.35
2022-09-21T04:24:18.579Z,23.33
2022-09-21T04:24:50.221Z,23.34
2022-09-21T04:25:21.839Z,23.36
2022-09-21T04:25:53.748Z,23.38
2022-09-21T04:26:26.196Z,23.37
2022-09-21T04:26:57.807Z,23.33
2022-09-21T04:27:29.364Z,23.33
2022-09-21T04:28:01.008Z,23.33
2022-09-21T04:28:32.491Z,23.32
2022-09-21T04:29:04.125Z,23.35
2022-09-21T04:29:35.697Z,23.40
2022-09-21T04:30:07.533Z,23.42
2022-09-21T04:30:39.081Z,23.39
2022-09-21T04:31:10.716Z,23.34
2022-09-21T04:31:42.430Z,23.36
2022-09-21T04:32:14.124Z,23.36
2022-09-21T04:32:45.816Z,23.36
2022-09-21T04:33:17.390Z,23.41
2022-09-21T04:33:49.550Z,23.42
2022-09-21T04:34:21.183Z,23.46
2022-09-21T04:34:52.807Z,23.43
2022-09-21T04:35:24.385Z,23.37
2022-09-21T04:35:56.056Z,23.37
2022-09-21T04:36:28.104Z,23.40
2022-09-21T04:36:59.679Z,23.38
2022-09-21T04:37:31.179Z,23.37
2022-09-21T04:38:02.722Z,23.38
2022-09-21T04:38:34.260Z,23.40
2022-09-21T04:39:05.843Z,23.42
2022-09-21T04:39:37.421Z,23.40
2022-09-21T04:40:09.150Z,23.38
2022-09-21T04:40:40.801Z,23.40
2022-09-21T04:41:12.464Z,23.39
2022-09-21T04:41:43.957Z,23.36
2022-09-21T04:42:15.558Z,23.35
2022-09-21T04:42:50.675Z,23.32
2022-09-21T04:43:22.749Z,23.31
2022-09-21T04:43:54.436Z,23.32
2022-09-21T04:44:26.195Z,23.31
2022-09-21T04:44:57.725Z,23.35
2022-09-21T04:45:29.328Z,23.41
2022-09-21T04:46:07.551Z,23.40
2022-09-21T04:46:39.101Z,23.42
2022-09-21T04:47:10.634Z,23.43
2022-09-21T04:47:42.169Z,23.40
2022-09-21T04:48:13.826Z,23.39
2022-09-21T04:48:45.477Z,23.43
2022-09-21T04:49:16.990Z,23.42
2022-09-21T04:49:48.552Z,23.45
2022-09-21T04:50:20.096Z,23.43
2022-09-21T04:50:51.666Z,23.45
2022-09-21T04:51:23.255Z,23.41
2022-09-21T04:51:54.838Z,23.40
2022-09-21T04:52:26.343Z,23.44
2022-09-21T04:52:57.951Z,23.45
2022-09-21T04:53:29.889Z,23.40
2022-09-21T04:54:01.608Z,23.43
2022-09-21T04:54:33.131Z,23.42
2022-09-21T04:55:04.922Z,23.43
2022-09-21T04:55:36.508Z,23.44
2022-09-21T04:56:08.276Z,23.40
2022-09-21T04:56:39.816Z,23.39
2022-09-21T04:57:11.458Z,23.42
2022-09-21T04:57:42.940Z,23.43
2022-09-21T04:58:14.456Z,23.42
2022-09-21T04:58:45.945Z,23.43
2022-09-21T04:59:17.487Z,23.41
2022-09-21T04:59:48.990Z,23.42
2022-09-21T05:00:20.552Z,23.42
2022-09-21T05:00:52.453Z,23.44
2022-09-21T05:01:24.054Z,23.48
2022-09-21T05:01:55.644Z,23.49
2022-09-21T05:02:27.184Z,23.49
2022-09-21T05:02:58.715Z,23.47
2022-09-21T05:03:30.394Z,23.46
2022-09-21T05:04:02.074Z,23.44
2022-09-21T05:04:33.662Z,23.42
2022-09-21T05:05:05.552Z,23.43
2022-09-21T05:05:37.071Z,23.41
2022-09-21T05:06:08.732Z,23.46
2022-09-21T05:06:40.301Z,23.43
2022-09-21T05:07:11.901Z,23.44
2022-09-21T05:07:43.485Z,23.46
2022-09-21T05:08:15.281Z,23.43
2022-09-21T05:08:46.759Z,23.41
2022-09-21T05:09:18.374Z,23.40
2022-09-21T05:09:49.927Z,23.41
2022-09-21T05:10:21.441Z,23.43
2022-09-21T05:10:53.088Z,23.42
2022-09-21T05:11:24.769Z,23.40
2022-09-21T05:11:56.272Z,23.46
2022-09-21T05:12:27.914Z,23.44
2022-09-21T05:12:59.465Z,23.45
2022-09-21T05:13:30.994Z,23.45
2022-09-21T05:14:02.676Z,23.43
2022-09-21T05:14:34.156Z,23.46
2022-09-21T05:15:06.097Z,23.44
2022-09-21T05:15:38.006Z,23.46
2022-09-21T05:16:09.690Z,23.43
2022-09-21T05:16:41.284Z,23.40
2022-09-21T05:17:12.861Z,23.44
2022-09-21T05:17:44.469Z,23.45
2022-09-21T05:18:16.060Z,23.45
2022-09-21T05:18:47.621Z,23.46
2022-09-21T05:19:19.272Z,23.42
2022-09-21T05:19:50.943Z,23.41
2022-09-21T05:20:22.483Z,23.39
2022-09-21T05:20:57.191Z,23.45
2022-09-21T05:21:28.829Z,23.44
2022-09-21T05:22:00.370Z,23.44
2022-09-21T05:22:31.932Z,23.43
2022-09-21T05:23:03.619Z,23.41
2022-09-21T05:23:35.544Z,23.45
2022-09-21T05:24:07.108Z,23.43
2022-09-21T05:24:38.657Z,23.43
2022-09-21T05:25:10.294Z,23.42
2022-09-21T05:25:41.799Z,23.42
2022-09-21T05:26:13.576Z,23.43
2022-09-21T05:26:45.135Z,23.40
2022-09-21T05:27:16.844Z,23.39
2022-09-21T05:27:48.477Z,23.37
2022-09-21T05:28:20.128Z,23.38
2022-09-21T05:28:51.795Z,23.38
2022-09-21T05:29:23.554Z,23.41
2022-09-21T05:29:55.187Z,23.39
2022-09-21T05:30:26.933Z,23.40
2022-09-21T05:31:16.652Z,23.39
2022-09-21T05:31:51.876Z,23.43
2022-09-21T05:32:41.804Z,23.43
2022-09-21T05:33:13.991Z,23.40
2022-09-21T05:33:55.105Z,23.35
2022-09-21T05:34:37.738Z,23.34
2022-09-21T05:35:29.603Z,23.37
2022-09-21T05:36:07.182Z,23.40
2022-09-21T05:36:41.634Z,23.40
2022-09-21T05:37:24.934Z,23.40
2022-09-21T05:38:13.121Z,23.39
2022-09-21T05:38:44.881Z,23.44
2022-09-21T05:39:16.565Z,23.44
2022-09-21T05:39:48.255Z,23.42
2022-09-21T05:40:20.177Z,23.42
2022-09-21T05:40:51.871Z,23.39
2022-09-21T05:41:23.597Z,23.35
2022-09-21T05:41:55.245Z,23.40
2022-09-21T05:42:27.036Z,23.40
2022-09-21T05:42:58.717Z,23.44
2022-09-21T05:43:30.551Z,23.40
2022-09-21T05:44:02.380Z,23.42
2022-09-21T05:44:34.284Z,23.42
2022-09-21T05:45:06.219Z,23.37
2022-09-21T05:45:38.080Z,23.40
2022-09-21T05:46:18.291Z,23.44
2022-09-21T05:46:53.954Z,23.42
2022-09-21T05:47:37.683Z,23.44
2022-09-21T05:48:19.394Z,23.46
2022-09-21T05:49:00.664Z,23.45
2022-09-21T05:49:50.886Z,23.39
2022-09-21T05:50:31.262Z,23.40
2022-09-21T05:51:04.071Z,23.38
2022-09-21T05:52:07.963Z,23.35
2022-09-21T05:52:48.031Z,23.39
2022-09-21T05:53:23.268Z,23.38
2022-09-21T05:54:12.385Z,23.38
2022-09-21T05:54:51.062Z,23.39
2022-09-21T05:55:30.682Z,23.39
2022-09-21T05:56:07.259Z,23.41
2022-09-21T05:56:42.572Z,23.41
2022-09-21T05:57:19.951Z,23.37
2022-09-21T05:57:55.540Z,23.36
2022-09-21T05:58:36.234Z,23.33
2022-09-21T05:59:16.519Z,23.34
2022-09-21T05:59:57.674Z,23.32
2022-09-21T06:00:31.318Z,23.32
2022-09-21T06:01:21.184Z,23.36
2022-09-21T06:01:57.654Z,23.35
2022-09-21T06:02:29.175Z,23.42
2022-09-21T06:03:20.513Z,23.38
2022-09-21T06:03:52.059Z,23.35
2022-09-21T06:04:23.745Z,23.34
2022-09-21T06:04:56.418Z,23.36
2022-09-21T06:05:28.001Z,23.37
2022-09-21T06:05:59.422Z,23.36
2022-09-21T06:06:30.908Z,23.34
2022-09-21T06:07:02.535Z,23.35
2022-09-21T06:07:34.070Z,23.36
2022-09-21T06:08:05.527Z,23.33
2022-09-21T06:08:36.982Z,23.33
2022-09-21T06:09:08.574Z,23.33
2022-09-21T06:09:43.038Z,23.33
2022-09-21T06:10:15.002Z,23.30
2022-09-21T06:10:46.568Z,23.30
2022-09-21T06:11:18.267Z,23.32
2022-09-21T06:11:49.729Z,23.33
2022-09-21T06:12:21.344Z,23.34
2022-09-21T06:12:52.881Z,23.38
2022-09-21T06:13:24.466Z,23.35
2022-09-21T06:13:56.045Z,23.36
2022-09-21T06:14:27.562Z,23.35
2022-09-21T06:14:59.081Z,23.38
2022-09-21T06:15:30.799Z,23.35
2022-09-21T06:16:02.688Z,23.34
2022-09-21T06:16:40.614Z,23.34
2022-09-21T06:17:12.307Z,23.34
2022-09-21T06:17:43.915Z,23.31
2022-09-21T06:18:17.991Z,23.31
2022-09-21T06:18:49.945Z,23.33
2022-09-21T06:19:21.550Z,23.31
2022-09-21T06:19:53.478Z,23.34
2022-09-21T06:20:25.121Z,23.34
2022-09-21T06:20:56.671Z,23.32
2022-09-21T06:21:28.211Z,23.32
2022-09-21T06:21:59.792Z,23.33
2022-09-21T06:22:31.442Z,23.33
2022-09-21T06:23:06.513Z,23.33
2022-09-21T06:23:38.264Z,23.35
2022-09-21T06:24:10.258Z,23.38
2022-09-21T06:24:41.767Z,23.36
2022-09-21T06:25:13.420Z,23.35
2022-09-21T06:25:44.991Z,23.35
2022-09-21T06:26:16.624Z,23.32
2022-09-21T06:26:48.235Z,23.34
2022-09-21T06:27:19.712Z,23.35
2022-09-21T06:27:51.185Z,23.37
2022-09-21T06:28:22.822Z,23.35
2022-09-21T06:28:54.419Z,23.35
2022-09-21T06:29:25.931Z,23.36
2022-09-21T06:29:57.542Z,23.41
2022-09-21T06:30:29.063Z,23.41
2022-09-21T06:31:00.693Z,23.40
2022-09-21T06:31:32.603Z,23.40
2022-09-21T06:32:04.474Z,23.38
2022-09-21T06:32:36.060Z,23.38
2022-09-21T06:33:07.754Z,23.38
2022-09-21T06:33:39.296Z,23.39
2022-09-21T06:34:10.890Z,23.38
2022-09-21T06:34:42.474Z,23.35
2022-09-21T06:35:14.062Z,23.36
2022-09-21T06:35:49.042Z,23.39
2022-09-21T06:36:20.595Z,23.39
2022-09-21T06:36:52.101Z,23.38
2022-09-21T06:37:23.638Z,23.40
2022-09-21T06:38:00.275Z,23.38
2022-09-21T06:38:31.867Z,23.39
2022-09-21T06:39:03.571Z,23.38
2022-09-21T06:39:35.201Z,23.38
2022-09-21T06:40:07.198Z,23.37
2022-09-21T06:40:38.858Z,23.34
2022-09-21T06:41:10.455Z,23.34
2022-09-21T06:41:42.148Z,23.38
2022-09-21T06:42:13.679Z,23.38
2022-09-21T06:42:45.258Z,23.37
2022-09-21T06:43:16.999Z,23.36
2022-09-21T06:43:48.715Z,23.35
2022-09-21T06:44:20.512Z,23.34
2022-09-21T06:44:52.341Z,23.32
2022-09-21T06:45:24.023Z,23.34
2022-09-21T06:45:56.008Z,23.35
2022-09-21T06:46:27.680Z,23.32
2022-09-21T06:46:59.203Z,23.33
2022-09-21T06:47:30.814Z,23.36
2022-09-21T06:48:02.518Z,23.35
2022-09-21T06:48:34.281Z,23.34
2022-09-21T06:49:05.785Z,23.34
2022-09-21T06:49:42.239Z,23.34
2022-09-21T06:50:14.170Z,23.37
2022-09-21T06:50:45.694Z,23.38
2022-09-21T06:51:17.240Z,23.39
2022-09-21T06:51:48.808Z,23.38
2022-09-21T06:52:20.324Z,23.37
2022-09-21T06:52:51.846Z,23.37
2022-09-21T06:53:23.378Z,23.38
2022-09-21T06:53:55.526Z,23.38
2022-09-21T06:54:27.042Z,23.39
2022-09-21T06:54:58.532Z,23.38
2022-09-21T06:55:30.974Z,23.38
2022-09-21T06:56:06.267Z,23.39
2022-09-21T06:56:37.845Z,23.42
2022-09-21T06:57:09.434Z,23.38
2022-09-21T06:57:41.179Z,23.37
2022-09-21T06:58:12.694Z,23.36
2022-09-21T06:58:44.206Z,23.37
2022-09-21T06:59:15.734Z,23.35
2022-09-21T06:59:47.261Z,23.37
2022-09-21T07:00:18.884Z,23.37
2022-09-21T07:00:50.478Z,23.37
2022-09-21T07:01:22.171Z,23.39
2022-09-21T07:01:53.865Z,23.39
2022-09-21T07:02:25.434Z,23.40
2022-09-21T07:02:57.021Z,23.39
2022-09-21T07:03:28.604Z,23.41
2022-09-21T07:04:00.238Z,23.39
2022-09-21T07:04:31.823Z,23.42
2022-09-21T07:05:03.813Z,23.40
2022-09-21T07:05:35.375Z,23.42
2022-09-21T07:06:07.016Z,23.42
2022-09-21T07:06:38.646Z,23.43
2022-09-21T07:07:10.219Z,23.41
2022-09-21T07:07:41.864Z,23.41
2022-09-21T07:10:15.843Z,23.44
2022-09-21T07:10:47.981Z,23.44
2022-09-21T07:11:19.658Z,23.43
2022-09-21T07:11:51.166Z,23.44
2022-09-21T07:12:22.721Z,23.44